sensor_id;sensor_type;location;lat;lon;timestamp;P1;durP1;ratioP1;P2;durP2;ratioP2
1446;SDS011;717;51.522;7.266;2024-01-30T00:00:48;6.47;;;4.95;;
1446;SDS011;717;51.522;7.266;2024-01-30T00:03:21;6.47;;;5.00;;
1446;SDS011;717;51.522;7.266;2024-01-30T00:05:51;5.47;;;4.88;;
1446;SDS011;717;51.522;7.266;2024-01-30T00:08:23;6.43;;;4.85;;
1446;SDS011;717;51.522;7.266;2024-01-30T00:10:53;7.60;;;5.38;;
1446;SDS011;717;51.522;7.266;2024-01-30T00:13:23;5.65;;;4.93;;
1446;SDS011;717;51.522;7.266;2024-01-30T00:15:53;7.40;;;4.63;;
1446;SDS011;717;51.522;7.266;2024-01-30T00:18:26;6.47;;;5.00;;
1446;SDS011;717;51.522;7.266;2024-01-30T00:20:56;5.40;;;4.90;;
1446;SDS011;717;51.522;7.266;2024-01-30T00:23:26;6.40;;;5.20;;
1446;SDS011;717;51.522;7.266;2024-01-30T00:25:56;7.05;;;5.05;;
1446;SDS011;717;51.522;7.266;2024-01-30T00:28:25;6.20;;;5.38;;
1446;SDS011;717;51.522;7.266;2024-01-30T00:30:55;5.95;;;4.78;;
1446;SDS011;717;51.522;7.266;2024-01-30T00:33:28;6.10;;;5.50;;
1446;SDS011;717;51.522;7.266;2024-01-30T00:35:58;6.45;;;5.25;;
1446;SDS011;717;51.522;7.266;2024-01-30T00:38:28;5.43;;;4.80;;
1446;SDS011;717;51.522;7.266;2024-01-30T00:40:58;5.93;;;4.97;;
1446;SDS011;717;51.522;7.266;2024-01-30T00:43:28;5.63;;;5.05;;
1446;SDS011;717;51.522;7.266;2024-01-30T00:45:58;6.30;;;4.88;;
1446;SDS011;717;51.522;7.266;2024-01-30T00:48:32;5.97;;;5.32;;
1446;SDS011;717;51.522;7.266;2024-01-30T00:51:02;6.13;;;5.43;;
1446;SDS011;717;51.522;7.266;2024-01-30T00:53:32;7.07;;;5.38;;
1446;SDS011;717;51.522;7.266;2024-01-30T00:56:03;6.05;;;5.10;;
1446;SDS011;717;51.522;7.266;2024-01-30T00:58:34;6.75;;;5.20;;
1446;SDS011;717;51.522;7.266;2024-01-30T01:01:04;5.95;;;5.13;;
1446;SDS011;717;51.522;7.266;2024-01-30T01:03:37;6.63;;;4.93;;
1446;SDS011;717;51.522;7.266;2024-01-30T01:06:07;5.97;;;5.38;;
1446;SDS011;717;51.522;7.266;2024-01-30T01:08:37;6.47;;;5.75;;
1446;SDS011;717;51.522;7.266;2024-01-30T01:11:08;6.82;;;5.32;;
1446;SDS011;717;51.522;7.266;2024-01-30T01:13:38;6.15;;;4.93;;
1446;SDS011;717;51.522;7.266;2024-01-30T01:16:07;6.25;;;5.30;;
1446;SDS011;717;51.522;7.266;2024-01-30T01:18:40;8.95;;;5.60;;
1446;SDS011;717;51.522;7.266;2024-01-30T01:21:10;6.85;;;5.22;;
1446;SDS011;717;51.522;7.266;2024-01-30T01:23:40;5.50;;;5.00;;
1446;SDS011;717;51.522;7.266;2024-01-30T01:26:10;5.45;;;4.95;;
1446;SDS011;717;51.522;7.266;2024-01-30T01:28:40;6.95;;;5.13;;
1446;SDS011;717;51.522;7.266;2024-01-30T01:31:10;8.35;;;5.50;;
1446;SDS011;717;51.522;7.266;2024-01-30T01:33:43;5.85;;;5.13;;
1446;SDS011;717;51.522;7.266;2024-01-30T01:36:13;5.97;;;5.38;;
1446;SDS011;717;51.522;7.266;2024-01-30T01:38:43;6.65;;;5.70;;
1446;SDS011;717;51.522;7.266;2024-01-30T01:41:13;7.50;;;5.53;;
1446;SDS011;717;51.522;7.266;2024-01-30T01:43:43;6.57;;;5.80;;
1446;SDS011;717;51.522;7.266;2024-01-30T01:46:12;8.98;;;5.32;;
1446;SDS011;717;51.522;7.266;2024-01-30T01:48:45;7.78;;;5.78;;
1446;SDS011;717;51.522;7.266;2024-01-30T01:51:15;6.25;;;5.20;;
1446;SDS011;717;51.522;7.266;2024-01-30T01:53:46;8.18;;;5.95;;
1446;SDS011;717;51.522;7.266;2024-01-30T01:56:16;5.97;;;5.38;;
1446;SDS011;717;51.522;7.266;2024-01-30T01:58:46;6.82;;;5.13;;
1446;SDS011;717;51.522;7.266;2024-01-30T02:01:18;7.93;;;5.53;;
1446;SDS011;717;51.522;7.266;2024-01-30T02:03:52;6.97;;;5.43;;
1446;SDS011;717;51.522;7.266;2024-01-30T02:06:23;6.90;;;5.75;;
1446;SDS011;717;51.522;7.266;2024-01-30T02:08:53;6.05;;;5.40;;
1446;SDS011;717;51.522;7.266;2024-01-30T02:11:24;6.18;;;5.57;;
1446;SDS011;717;51.522;7.266;2024-01-30T02:13:54;6.00;;;5.10;;
1446;SDS011;717;51.522;7.266;2024-01-30T02:16:24;5.88;;;5.10;;
1446;SDS011;717;51.522;7.266;2024-01-30T02:18:57;5.60;;;5.05;;
1446;SDS011;717;51.522;7.266;2024-01-30T02:21:30;5.80;;;4.97;;
1446;SDS011;717;51.522;7.266;2024-01-30T02:24:00;6.55;;;5.65;;
1446;SDS011;717;51.522;7.266;2024-01-30T02:26:32;6.15;;;5.55;;
1446;SDS011;717;51.522;7.266;2024-01-30T02:29:02;7.03;;;5.78;;
1446;SDS011;717;51.522;7.266;2024-01-30T02:31:31;6.25;;;5.25;;
1446;SDS011;717;51.522;7.266;2024-01-30T02:34:01;6.05;;;5.07;;
1446;SDS011;717;51.522;7.266;2024-01-30T02:36:34;5.60;;;5.07;;
1446;SDS011;717;51.522;7.266;2024-01-30T02:39:04;5.63;;;5.13;;
1446;SDS011;717;51.522;7.266;2024-01-30T02:41:34;8.15;;;5.32;;
1446;SDS011;717;51.522;7.266;2024-01-30T02:44:04;5.80;;;5.05;;
1446;SDS011;717;51.522;7.266;2024-01-30T02:46:34;5.88;;;5.25;;
1446;SDS011;717;51.522;7.266;2024-01-30T02:49:04;6.38;;;5.28;;
1446;SDS011;717;51.522;7.266;2024-01-30T02:51:37;5.85;;;5.10;;
1446;SDS011;717;51.522;7.266;2024-01-30T02:54:07;8.25;;;5.28;;
1446;SDS011;717;51.522;7.266;2024-01-30T02:56:37;6.50;;;5.03;;
1446;SDS011;717;51.522;7.266;2024-01-30T02:59:07;6.13;;;4.90;;
1446;SDS011;717;51.522;7.266;2024-01-30T03:01:42;7.18;;;5.03;;
1446;SDS011;717;51.522;7.266;2024-01-30T03:04:13;5.68;;;4.95;;
1446;SDS011;717;51.522;7.266;2024-01-30T03:06:47;5.47;;;4.95;;
1446;SDS011;717;51.522;7.266;2024-01-30T03:09:17;6.35;;;5.30;;
1446;SDS011;717;51.522;7.266;2024-01-30T03:11:47;6.40;;;5.47;;
1446;SDS011;717;51.522;7.266;2024-01-30T03:14:17;5.40;;;4.90;;
1446;SDS011;717;51.522;7.266;2024-01-30T03:16:46;6.47;;;5.55;;
1446;SDS011;717;51.522;7.266;2024-01-30T03:19:16;5.20;;;4.70;;
1446;SDS011;717;51.522;7.266;2024-01-30T03:21:49;5.70;;;4.57;;
1446;SDS011;717;51.522;7.266;2024-01-30T03:24:20;5.82;;;5.20;;
1446;SDS011;717;51.522;7.266;2024-01-30T03:26:49;5.80;;;4.80;;
1446;SDS011;717;51.522;7.266;2024-01-30T03:29:19;5.95;;;5.10;;
1446;SDS011;717;51.522;7.266;2024-01-30T03:31:49;6.97;;;5.65;;
1446;SDS011;717;51.522;7.266;2024-01-30T03:34:19;5.55;;;5.00;;
1446;SDS011;717;51.522;7.266;2024-01-30T03:36:52;5.47;;;4.93;;
1446;SDS011;717;51.522;7.266;2024-01-30T03:39:22;5.78;;;4.93;;
1446;SDS011;717;51.522;7.266;2024-01-30T03:41:52;5.43;;;4.57;;
1446;SDS011;717;51.522;7.266;2024-01-30T03:44:22;5.18;;;4.68;;
1446;SDS011;717;51.522;7.266;2024-01-30T03:46:52;5.88;;;4.65;;
1446;SDS011;717;51.522;7.266;2024-01-30T03:49:22;5.68;;;4.53;;
1446;SDS011;717;51.522;7.266;2024-01-30T03:51:55;6.00;;;4.95;;
1446;SDS011;717;51.522;7.266;2024-01-30T03:54:25;5.55;;;4.60;;
1446;SDS011;717;51.522;7.266;2024-01-30T03:56:55;5.53;;;4.65;;
1446;SDS011;717;51.522;7.266;2024-01-30T03:59:25;5.75;;;5.15;;
1446;SDS011;717;51.522;7.266;2024-01-30T04:01:55;5.03;;;4.53;;
1446;SDS011;717;51.522;7.266;2024-01-30T04:04:25;5.25;;;4.75;;
1446;SDS011;717;51.522;7.266;2024-01-30T04:06:57;6.43;;;4.78;;
1446;SDS011;717;51.522;7.266;2024-01-30T04:09:27;4.53;;;4.15;;
1446;SDS011;717;51.522;7.266;2024-01-30T04:11:59;5.22;;;4.72;;
1446;SDS011;717;51.522;7.266;2024-01-30T04:14:30;5.13;;;4.55;;
1446;SDS011;717;51.522;7.266;2024-01-30T04:17:00;6.50;;;4.70;;
1446;SDS011;717;51.522;7.266;2024-01-30T04:19:30;5.40;;;4.50;;
1446;SDS011;717;51.522;7.266;2024-01-30T04:22:02;4.80;;;4.22;;
1446;SDS011;717;51.522;7.266;2024-01-30T04:24:32;5.00;;;4.50;;
1446;SDS011;717;51.522;7.266;2024-01-30T04:27:02;5.18;;;4.63;;
1446;SDS011;717;51.522;7.266;2024-01-30T04:29:33;7.78;;;5.28;;
1446;SDS011;717;51.522;7.266;2024-01-30T04:32:03;4.88;;;4.40;;
1446;SDS011;717;51.522;7.266;2024-01-30T04:34:34;5.30;;;4.28;;
1446;SDS011;717;51.522;7.266;2024-01-30T04:37:08;5.97;;;4.45;;
1446;SDS011;717;51.522;7.266;2024-01-30T04:39:38;6.03;;;4.43;;
1446;SDS011;717;51.522;7.266;2024-01-30T04:42:08;6.15;;;4.78;;
1446;SDS011;717;51.522;7.266;2024-01-30T04:44:38;5.65;;;4.50;;
1446;SDS011;717;51.522;7.266;2024-01-30T04:47:08;6.15;;;4.30;;
1446;SDS011;717;51.522;7.266;2024-01-30T04:49:38;5.22;;;4.65;;
1446;SDS011;717;51.522;7.266;2024-01-30T04:52:11;5.38;;;4.07;;
1446;SDS011;717;51.522;7.266;2024-01-30T04:54:41;4.50;;;4.10;;
1446;SDS011;717;51.522;7.266;2024-01-30T04:57:11;5.20;;;4.68;;
1446;SDS011;717;51.522;7.266;2024-01-30T04:59:41;5.38;;;4.30;;
1446;SDS011;717;51.522;7.266;2024-01-30T05:02:11;6.00;;;4.70;;
1446;SDS011;717;51.522;7.266;2024-01-30T05:04:41;5.45;;;4.53;;
1446;SDS011;717;51.522;7.266;2024-01-30T05:07:13;5.85;;;4.55;;
1446;SDS011;717;51.522;7.266;2024-01-30T05:09:44;6.50;;;4.38;;
1446;SDS011;717;51.522;7.266;2024-01-30T05:12:14;5.00;;;4.50;;
1446;SDS011;717;51.522;7.266;2024-01-30T05:14:44;4.38;;;3.97;;
1446;SDS011;717;51.522;7.266;2024-01-30T05:17:14;6.07;;;4.15;;
1446;SDS011;717;51.522;7.266;2024-01-30T05:19:44;5.45;;;4.20;;
1446;SDS011;717;51.522;7.266;2024-01-30T05:22:16;5.38;;;4.45;;
1446;SDS011;717;51.522;7.266;2024-01-30T05:24:46;5.15;;;4.65;;
1446;SDS011;717;51.522;7.266;2024-01-30T05:27:16;5.30;;;4.75;;
1446;SDS011;717;51.522;7.266;2024-01-30T05:29:46;5.18;;;4.50;;
1446;SDS011;717;51.522;7.266;2024-01-30T05:32:16;4.50;;;4.10;;
1446;SDS011;717;51.522;7.266;2024-01-30T05:34:46;5.03;;;4.63;;
1446;SDS011;717;51.522;7.266;2024-01-30T05:37:19;5.97;;;4.30;;
1446;SDS011;717;51.522;7.266;2024-01-30T05:39:49;4.95;;;4.22;;
1446;SDS011;717;51.522;7.266;2024-01-30T05:42:19;5.55;;;4.35;;
1446;SDS011;717;51.522;7.266;2024-01-30T05:44:49;5.53;;;4.00;;
1446;SDS011;717;51.522;7.266;2024-01-30T05:47:19;5.15;;;4.03;;
1446;SDS011;717;51.522;7.266;2024-01-30T05:49:49;6.38;;;4.60;;
1446;SDS011;717;51.522;7.266;2024-01-30T05:52:22;5.60;;;4.60;;
1446;SDS011;717;51.522;7.266;2024-01-30T05:54:52;4.50;;;4.10;;
1446;SDS011;717;51.522;7.266;2024-01-30T05:57:22;7.07;;;5.85;;
1446;SDS011;717;51.522;7.266;2024-01-30T05:59:52;12.18;;;8.40;;
1446;SDS011;717;51.522;7.266;2024-01-30T06:02:22;9.90;;;7.55;;
1446;SDS011;717;51.522;7.266;2024-01-30T06:04:52;8.00;;;6.18;;
1446;SDS011;717;51.522;7.266;2024-01-30T06:07:24;6.80;;;5.78;;
1446;SDS011;717;51.522;7.266;2024-01-30T06:09:59;5.28;;;4.78;;
1446;SDS011;717;51.522;7.266;2024-01-30T06:12:30;7.35;;;4.85;;
1446;SDS011;717;51.522;7.266;2024-01-30T06:15:00;6.80;;;4.45;;
1446;SDS011;717;51.522;7.266;2024-01-30T06:17:30;6.20;;;4.75;;
1446;SDS011;717;51.522;7.266;2024-01-30T06:20:00;7.50;;;4.75;;
1446;SDS011;717;51.522;7.266;2024-01-30T06:22:33;6.55;;;5.00;;
1446;SDS011;717;51.522;7.266;2024-01-30T06:25:03;6.88;;;4.22;;
1446;SDS011;717;51.522;7.266;2024-01-30T06:27:33;7.55;;;4.95;;
1446;SDS011;717;51.522;7.266;2024-01-30T06:30:04;6.10;;;4.20;;
1446;SDS011;717;51.522;7.266;2024-01-30T06:32:35;5.95;;;4.25;;
1446;SDS011;717;51.522;7.266;2024-01-30T06:35:05;5.05;;;4.05;;
1446;SDS011;717;51.522;7.266;2024-01-30T06:37:39;4.25;;;3.95;;
1446;SDS011;717;51.522;7.266;2024-01-30T06:40:09;4.15;;;3.75;;
1446;SDS011;717;51.522;7.266;2024-01-30T06:42:40;5.20;;;3.85;;
1446;SDS011;717;51.522;7.266;2024-01-30T06:45:10;5.55;;;4.45;;
1446;SDS011;717;51.522;7.266;2024-01-30T06:47:40;5.10;;;4.45;;
1446;SDS011;717;51.522;7.266;2024-01-30T06:50:10;6.72;;;4.47;;
1446;SDS011;717;51.522;7.266;2024-01-30T06:52:42;4.30;;;3.90;;
1446;SDS011;717;51.522;7.266;2024-01-30T06:55:12;5.07;;;4.57;;
1446;SDS011;717;51.522;7.266;2024-01-30T06:57:43;6.15;;;4.20;;
1446;SDS011;717;51.522;7.266;2024-01-30T07:00:14;5.63;;;4.50;;
1446;SDS011;717;51.522;7.266;2024-01-30T07:02:46;6.25;;;4.10;;
1446;SDS011;717;51.522;7.266;2024-01-30T07:05:16;6.15;;;4.38;;
1446;SDS011;717;51.522;7.266;2024-01-30T07:07:51;5.63;;;4.43;;
1446;SDS011;717;51.522;7.266;2024-01-30T07:10:21;4.72;;;4.32;;
1446;SDS011;717;51.522;7.266;2024-01-30T07:12:51;4.95;;;4.45;;
1446;SDS011;717;51.522;7.266;2024-01-30T07:15:21;5.05;;;4.43;;
1446;SDS011;717;51.522;7.266;2024-01-30T07:17:51;6.80;;;4.10;;
1446;SDS011;717;51.522;7.266;2024-01-30T07:20:21;4.75;;;4.13;;
1446;SDS011;717;51.522;7.266;2024-01-30T07:22:53;5.80;;;4.40;;
1446;SDS011;717;51.522;7.266;2024-01-30T07:25:23;6.28;;;4.38;;
1446;SDS011;717;51.522;7.266;2024-01-30T07:27:55;5.97;;;4.30;;
1446;SDS011;717;51.522;7.266;2024-01-30T07:30:25;6.30;;;4.00;;
1446;SDS011;717;51.522;7.266;2024-01-30T07:32:55;4.47;;;4.07;;
1446;SDS011;717;51.522;7.266;2024-01-30T07:35:25;5.60;;;4.57;;
1446;SDS011;717;51.522;7.266;2024-01-30T07:37:57;5.45;;;4.43;;
1446;SDS011;717;51.522;7.266;2024-01-30T07:40:27;5.93;;;4.63;;
1446;SDS011;717;51.522;7.266;2024-01-30T07:42:59;5.97;;;4.38;;
1446;SDS011;717;51.522;7.266;2024-01-30T07:45:30;5.63;;;4.63;;
1446;SDS011;717;51.522;7.266;2024-01-30T07:48:00;7.72;;;4.68;;
1446;SDS011;717;51.522;7.266;2024-01-30T07:50:30;5.47;;;4.43;;
1446;SDS011;717;51.522;7.266;2024-01-30T07:53:03;6.57;;;4.10;;
1446;SDS011;717;51.522;7.266;2024-01-30T07:55:33;5.53;;;4.25;;
1446;SDS011;717;51.522;7.266;2024-01-30T07:58:03;5.80;;;3.97;;
1446;SDS011;717;51.522;7.266;2024-01-30T08:00:33;5.18;;;3.90;;
1446;SDS011;717;51.522;7.266;2024-01-30T08:03:04;4.82;;;4.22;;
1446;SDS011;717;51.522;7.266;2024-01-30T08:05:34;5.22;;;4.28;;
1446;SDS011;717;51.522;7.266;2024-01-30T08:08:08;5.25;;;4.45;;
1446;SDS011;717;51.522;7.266;2024-01-30T08:10:38;4.53;;;4.15;;
1446;SDS011;717;51.522;7.266;2024-01-30T08:13:08;7.00;;;4.63;;
1446;SDS011;717;51.522;7.266;2024-01-30T08:15:38;4.50;;;3.97;;
1446;SDS011;717;51.522;7.266;2024-01-30T08:18:08;7.63;;;4.30;;
1446;SDS011;717;51.522;7.266;2024-01-30T08:20:38;5.22;;;4.40;;
1446;SDS011;717;51.522;7.266;2024-01-30T08:23:11;5.85;;;4.82;;
1446;SDS011;717;51.522;7.266;2024-01-30T08:25:41;6.15;;;4.68;;
1446;SDS011;717;51.522;7.266;2024-01-30T08:28:11;5.43;;;4.53;;
1446;SDS011;717;51.522;7.266;2024-01-30T08:30:44;5.70;;;4.25;;
1446;SDS011;717;51.522;7.266;2024-01-30T08:33:14;4.72;;;4.20;;
1446;SDS011;717;51.522;7.266;2024-01-30T08:35:44;6.25;;;4.38;;
1446;SDS011;717;51.522;7.266;2024-01-30T08:38:17;5.15;;;4.63;;
1446;SDS011;717;51.522;7.266;2024-01-30T08:40:47;6.25;;;4.22;;
1446;SDS011;717;51.522;7.266;2024-01-30T08:43:17;5.10;;;4.63;;
1446;SDS011;717;51.522;7.266;2024-01-30T08:45:47;4.20;;;3.90;;
1446;SDS011;717;51.522;7.266;2024-01-30T08:48:17;5.97;;;4.40;;
1446;SDS011;717;51.522;7.266;2024-01-30T08:50:48;5.70;;;4.15;;
1446;SDS011;717;51.522;7.266;2024-01-30T08:53:20;4.68;;;4.05;;
1446;SDS011;717;51.522;7.266;2024-01-30T08:55:51;4.38;;;3.97;;
1446;SDS011;717;51.522;7.266;2024-01-30T08:58:21;5.32;;;4.30;;
1446;SDS011;717;51.522;7.266;2024-01-30T09:00:51;5.47;;;4.20;;
1446;SDS011;717;51.522;7.266;2024-01-30T09:03:21;5.95;;;4.07;;
1446;SDS011;717;51.522;7.266;2024-01-30T09:05:51;5.30;;;4.25;;
1446;SDS011;717;51.522;7.266;2024-01-30T09:08:24;5.57;;;4.72;;
1446;SDS011;717;51.522;7.266;2024-01-30T09:10:54;6.22;;;3.80;;
1446;SDS011;717;51.522;7.266;2024-01-30T09:13:24;5.18;;;4.05;;
1446;SDS011;717;51.522;7.266;2024-01-30T09:15:54;5.85;;;3.80;;
1446;SDS011;717;51.522;7.266;2024-01-30T09:18:24;5.05;;;4.28;;
1446;SDS011;717;51.522;7.266;2024-01-30T09:20:54;5.65;;;4.18;;
1446;SDS011;717;51.522;7.266;2024-01-30T09:23:27;5.00;;;4.38;;
1446;SDS011;717;51.522;7.266;2024-01-30T09:25:57;4.82;;;4.15;;
1446;SDS011;717;51.522;7.266;2024-01-30T09:28:27;5.82;;;4.22;;
1446;SDS011;717;51.522;7.266;2024-01-30T09:30:58;4.63;;;3.65;;
1446;SDS011;717;51.522;7.266;2024-01-30T09:33:28;5.28;;;3.60;;
1446;SDS011;717;51.522;7.266;2024-01-30T09:35:58;5.38;;;3.60;;
1446;SDS011;717;51.522;7.266;2024-01-30T09:38:30;4.50;;;3.80;;
1446;SDS011;717;51.522;7.266;2024-01-30T09:41:01;4.03;;;3.05;;
1446;SDS011;717;51.522;7.266;2024-01-30T09:43:35;4.05;;;3.05;;
1446;SDS011;717;51.522;7.266;2024-01-30T09:46:08;3.38;;;3.08;;
1446;SDS011;717;51.522;7.266;2024-01-30T09:48:41;4.70;;;3.20;;
1446;SDS011;717;51.522;7.266;2024-01-30T09:51:12;3.63;;;3.10;;
1446;SDS011;717;51.522;7.266;2024-01-30T09:53:46;3.80;;;3.40;;
1446;SDS011;717;51.522;7.266;2024-01-30T09:56:18;3.90;;;3.05;;
1446;SDS011;717;51.522;7.266;2024-01-30T09:58:48;3.38;;;3.08;;
1446;SDS011;717;51.522;7.266;2024-01-30T10:01:18;4.35;;;3.10;;
1446;SDS011;717;51.522;7.266;2024-01-30T10:03:50;4.55;;;3.22;;
1446;SDS011;717;51.522;7.266;2024-01-30T10:06:21;5.18;;;3.50;;
1446;SDS011;717;51.522;7.266;2024-01-30T10:08:56;3.80;;;2.95;;
1446;SDS011;717;51.522;7.266;2024-01-30T10:11:26;4.47;;;3.13;;
1446;SDS011;717;51.522;7.266;2024-01-30T10:13:56;4.60;;;2.85;;
1446;SDS011;717;51.522;7.266;2024-01-30T10:16:26;3.10;;;2.50;;
1446;SDS011;717;51.522;7.266;2024-01-30T10:18:57;4.35;;;3.28;;
1446;SDS011;717;51.522;7.266;2024-01-30T10:21:27;3.25;;;2.90;;
1446;SDS011;717;51.522;7.266;2024-01-30T10:23:59;4.40;;;3.15;;
1446;SDS011;717;51.522;7.266;2024-01-30T10:26:29;3.70;;;2.92;;
1446;SDS011;717;51.522;7.266;2024-01-30T10:29:01;5.18;;;3.30;;
1446;SDS011;717;51.522;7.266;2024-01-30T10:31:31;5.68;;;3.30;;
1446;SDS011;717;51.522;7.266;2024-01-30T10:34:01;4.45;;;2.92;;
1446;SDS011;717;51.522;7.266;2024-01-30T10:36:45;3.55;;;3.25;;
1446;SDS011;717;51.522;7.266;2024-01-30T10:39:21;5.30;;;3.03;;
1446;SDS011;717;51.522;7.266;2024-01-30T10:41:53;3.67;;;3.03;;
1446;SDS011;717;51.522;7.266;2024-01-30T10:44:27;3.70;;;3.00;;
1446;SDS011;717;51.522;7.266;2024-01-30T10:47:03;4.13;;;3.25;;
1446;SDS011;717;51.522;7.266;2024-01-30T10:49:40;3.88;;;2.90;;
1446;SDS011;717;51.522;7.266;2024-01-30T10:52:13;4.53;;;3.07;;
1446;SDS011;717;51.522;7.266;2024-01-30T10:54:47;4.55;;;3.28;;
1446;SDS011;717;51.522;7.266;2024-01-30T10:57:19;3.42;;;2.63;;
1446;SDS011;717;51.522;7.266;2024-01-30T10:59:52;3.97;;;3.20;;
1446;SDS011;717;51.522;7.266;2024-01-30T11:02:24;4.40;;;3.40;;
1446;SDS011;717;51.522;7.266;2024-01-30T11:04:55;5.93;;;3.20;;
1446;SDS011;717;51.522;7.266;2024-01-30T11:07:27;4.38;;;2.85;;
1446;SDS011;717;51.522;7.266;2024-01-30T11:10:04;5.30;;;3.30;;
1446;SDS011;717;51.522;7.266;2024-01-30T11:12:37;6.80;;;3.40;;
1446;SDS011;717;51.522;7.266;2024-01-30T11:15:11;4.03;;;3.33;;
1446;SDS011;717;51.522;7.266;2024-01-30T11:17:42;3.83;;;3.15;;
1446;SDS011;717;51.522;7.266;2024-01-30T11:20:14;3.67;;;3.20;;
1446;SDS011;717;51.522;7.266;2024-01-30T11:22:46;4.00;;;3.60;;
1446;SDS011;717;51.522;7.266;2024-01-30T11:25:20;4.38;;;2.90;;
1446;SDS011;717;51.522;7.266;2024-01-30T11:27:51;5.18;;;3.45;;
1446;SDS011;717;51.522;7.266;2024-01-30T11:30:23;5.82;;;2.92;;
1446;SDS011;717;51.522;7.266;2024-01-30T11:33:00;5.35;;;3.67;;
1446;SDS011;717;51.522;7.266;2024-01-30T11:35:32;7.38;;;3.83;;
1446;SDS011;717;51.522;7.266;2024-01-30T11:38:04;4.82;;;3.25;;
1446;SDS011;717;51.522;7.266;2024-01-30T11:40:37;5.70;;;4.03;;
1446;SDS011;717;51.522;7.266;2024-01-30T11:43:08;4.32;;;3.28;;
1446;SDS011;717;51.522;7.266;2024-01-30T11:45:38;5.05;;;3.30;;
1446;SDS011;717;51.522;7.266;2024-01-30T11:48:11;4.53;;;3.15;;
1446;SDS011;717;51.522;7.266;2024-01-30T11:50:41;6.38;;;3.55;;
1446;SDS011;717;51.522;7.266;2024-01-30T11:53:12;4.50;;;3.50;;
1446;SDS011;717;51.522;7.266;2024-01-30T11:55:51;6.88;;;3.67;;
1446;SDS011;717;51.522;7.266;2024-01-30T11:58:24;4.90;;;3.47;;
1446;SDS011;717;51.522;7.266;2024-01-30T12:00:55;4.70;;;3.47;;
1446;SDS011;717;51.522;7.266;2024-01-30T12:03:26;4.85;;;3.63;;
1446;SDS011;717;51.522;7.266;2024-01-30T12:05:56;7.45;;;3.70;;
1446;SDS011;717;51.522;7.266;2024-01-30T12:08:27;6.88;;;3.75;;
1446;SDS011;717;51.522;7.266;2024-01-30T12:11:00;7.05;;;3.47;;
1446;SDS011;717;51.522;7.266;2024-01-30T12:13:32;6.80;;;4.00;;
1446;SDS011;717;51.522;7.266;2024-01-30T12:16:02;4.68;;;3.90;;
1446;SDS011;717;51.522;7.266;2024-01-30T12:18:33;6.95;;;4.07;;
1446;SDS011;717;51.522;7.266;2024-01-30T12:21:03;7.43;;;3.92;;
1446;SDS011;717;51.522;7.266;2024-01-30T12:23:34;6.47;;;4.50;;
1446;SDS011;717;51.522;7.266;2024-01-30T12:26:07;7.90;;;4.35;;
1446;SDS011;717;51.522;7.266;2024-01-30T12:28:46;5.43;;;3.72;;
1446;SDS011;717;51.522;7.266;2024-01-30T12:31:17;5.47;;;3.97;;
1446;SDS011;717;51.522;7.266;2024-01-30T12:33:48;6.32;;;4.15;;
1446;SDS011;717;51.522;7.266;2024-01-30T12:36:19;5.40;;;4.20;;
1446;SDS011;717;51.522;7.266;2024-01-30T12:38:49;7.70;;;4.78;;
1446;SDS011;717;51.522;7.266;2024-01-30T12:41:22;6.65;;;4.53;;
1446;SDS011;717;51.522;7.266;2024-01-30T12:43:55;6.60;;;4.32;;
1446;SDS011;717;51.522;7.266;2024-01-30T12:46:27;10.00;;;4.53;;
1446;SDS011;717;51.522;7.266;2024-01-30T12:48:58;6.00;;;4.68;;
1446;SDS011;717;51.522;7.266;2024-01-30T12:51:28;6.68;;;4.03;;
1446;SDS011;717;51.522;7.266;2024-01-30T12:53:58;6.82;;;4.40;;
1446;SDS011;717;51.522;7.266;2024-01-30T12:56:30;6.45;;;4.35;;
1446;SDS011;717;51.522;7.266;2024-01-30T12:59:00;7.88;;;4.78;;
1446;SDS011;717;51.522;7.266;2024-01-30T13:01:30;7.55;;;5.03;;
1446;SDS011;717;51.522;7.266;2024-01-30T13:04:00;5.28;;;4.28;;
1446;SDS011;717;51.522;7.266;2024-01-30T13:06:31;7.38;;;4.25;;
1446;SDS011;717;51.522;7.266;2024-01-30T13:09:00;6.70;;;4.00;;
1446;SDS011;717;51.522;7.266;2024-01-30T13:11:35;7.30;;;4.72;;
1446;SDS011;717;51.522;7.266;2024-01-30T13:14:04;6.43;;;4.40;;
1446;SDS011;717;51.522;7.266;2024-01-30T13:16:34;6.22;;;4.70;;
1446;SDS011;717;51.522;7.266;2024-01-30T13:19:04;8.55;;;4.68;;
1446;SDS011;717;51.522;7.266;2024-01-30T13:21:35;6.88;;;4.55;;
1446;SDS011;717;51.522;7.266;2024-01-30T13:24:05;7.72;;;4.88;;
1446;SDS011;717;51.522;7.266;2024-01-30T13:26:38;6.47;;;4.22;;
1446;SDS011;717;51.522;7.266;2024-01-30T13:29:09;6.50;;;5.00;;
1446;SDS011;717;51.522;7.266;2024-01-30T13:31:38;6.72;;;4.75;;
1446;SDS011;717;51.522;7.266;2024-01-30T13:34:10;7.95;;;4.22;;
1446;SDS011;717;51.522;7.266;2024-01-30T13:36:41;7.38;;;4.30;;
1446;SDS011;717;51.522;7.266;2024-01-30T13:39:11;5.80;;;4.30;;
1446;SDS011;717;51.522;7.266;2024-01-30T13:41:44;6.65;;;4.00;;
1446;SDS011;717;51.522;7.266;2024-01-30T13:44:15;6.60;;;4.38;;
1446;SDS011;717;51.522;7.266;2024-01-30T13:46:45;8.43;;;4.70;;
1446;SDS011;717;51.522;7.266;2024-01-30T13:49:15;8.50;;;5.50;;
1446;SDS011;717;51.522;7.266;2024-01-30T13:51:45;6.60;;;4.50;;
1446;SDS011;717;51.522;7.266;2024-01-30T13:54:15;7.05;;;4.93;;
1446;SDS011;717;51.522;7.266;2024-01-30T13:56:48;6.53;;;5.18;;
1446;SDS011;717;51.522;7.266;2024-01-30T13:59:18;5.13;;;4.63;;
1446;SDS011;717;51.522;7.266;2024-01-30T14:01:51;8.60;;;5.03;;
1446;SDS011;717;51.522;7.266;2024-01-30T14:04:21;6.90;;;4.00;;
1446;SDS011;717;51.522;7.266;2024-01-30T14:06:51;7.97;;;4.93;;
1446;SDS011;717;51.522;7.266;2024-01-30T14:09:30;7.28;;;4.95;;
1446;SDS011;717;51.522;7.266;2024-01-30T14:12:03;8.00;;;5.30;;
1446;SDS011;717;51.522;7.266;2024-01-30T14:14:34;6.57;;;4.57;;
1446;SDS011;717;51.522;7.266;2024-01-30T14:17:04;6.57;;;4.82;;
1446;SDS011;717;51.522;7.266;2024-01-30T14:19:35;7.95;;;4.97;;
1446;SDS011;717;51.522;7.266;2024-01-30T14:22:05;6.50;;;4.70;;
1446;SDS011;717;51.522;7.266;2024-01-30T14:24:35;5.47;;;4.65;;
1446;SDS011;717;51.522;7.266;2024-01-30T14:27:09;6.45;;;4.78;;
1446;SDS011;717;51.522;7.266;2024-01-30T14:29:39;6.82;;;4.32;;
1446;SDS011;717;51.522;7.266;2024-01-30T14:32:10;11.82;;;5.00;;
1446;SDS011;717;51.522;7.266;2024-01-30T14:34:40;9.52;;;4.63;;
1446;SDS011;717;51.522;7.266;2024-01-30T14:37:10;7.25;;;4.70;;
1446;SDS011;717;51.522;7.266;2024-01-30T14:39:40;6.82;;;5.10;;
1446;SDS011;717;51.522;7.266;2024-01-30T14:42:13;7.15;;;4.80;;
1446;SDS011;717;51.522;7.266;2024-01-30T14:44:43;5.80;;;4.80;;
1446;SDS011;717;51.522;7.266;2024-01-30T14:47:13;6.43;;;5.00;;
1446;SDS011;717;51.522;7.266;2024-01-30T14:49:43;6.65;;;4.57;;
1446;SDS011;717;51.522;7.266;2024-01-30T14:52:13;7.40;;;5.07;;
1446;SDS011;717;51.522;7.266;2024-01-30T14:54:43;6.43;;;5.07;;
1446;SDS011;717;51.522;7.266;2024-01-30T14:57:16;6.03;;;4.88;;
1446;SDS011;717;51.522;7.266;2024-01-30T14:59:46;6.97;;;5.13;;
1446;SDS011;717;51.522;7.266;2024-01-30T15:02:16;10.50;;;6.10;;
1446;SDS011;717;51.522;7.266;2024-01-30T15:04:46;6.03;;;4.78;;
1446;SDS011;717;51.522;7.266;2024-01-30T15:07:16;7.57;;;5.80;;
1446;SDS011;717;51.522;7.266;2024-01-30T15:09:58;6.65;;;5.57;;
1446;SDS011;717;51.522;7.266;2024-01-30T15:12:32;7.97;;;5.85;;
1446;SDS011;717;51.522;7.266;2024-01-30T15:15:03;7.68;;;5.97;;
1446;SDS011;717;51.522;7.266;2024-01-30T15:17:35;6.75;;;6.07;;
1446;SDS011;717;51.522;7.266;2024-01-30T15:20:05;6.45;;;5.43;;
1446;SDS011;717;51.522;7.266;2024-01-30T15:22:36;6.93;;;4.75;;
1446;SDS011;717;51.522;7.266;2024-01-30T15:25:07;7.32;;;5.50;;
1446;SDS011;717;51.522;7.266;2024-01-30T15:27:40;8.80;;;6.03;;
1446;SDS011;717;51.522;7.266;2024-01-30T15:30:10;8.63;;;5.43;;
1446;SDS011;717;51.522;7.266;2024-01-30T15:32:41;7.38;;;5.57;;
1446;SDS011;717;51.522;7.266;2024-01-30T15:35:11;6.72;;;4.55;;
1446;SDS011;717;51.522;7.266;2024-01-30T15:37:41;6.20;;;4.57;;
1446;SDS011;717;51.522;7.266;2024-01-30T15:40:11;7.18;;;5.18;;
1446;SDS011;717;51.522;7.266;2024-01-30T15:42:44;4.60;;;4.15;;
1446;SDS011;717;51.522;7.266;2024-01-30T15:45:15;5.78;;;4.35;;
1446;SDS011;717;51.522;7.266;2024-01-30T15:47:46;4.95;;;4.40;;
1446;SDS011;717;51.522;7.266;2024-01-30T15:50:16;4.30;;;3.78;;
1446;SDS011;717;51.522;7.266;2024-01-30T15:52:46;3.78;;;3.33;;